Terminal Aerodrome Forecast
Issued by NWS

Home | Current Version | Previous Version | Text Only | Print | Product List | Glossary On
Versions: 1 2 3 4 5 6 7 8 9 10 11 12 13 14 15 16 17 18 19 20 21 22
000
FTUS45 KBOU 160901 AAB
TAFAPA
TAF AMD
KAPA 160901Z 1609/1706 33008KT 2SM -SN BR SCT006 BKN012 OVC025
      TEMPO 1609/1613 3/4SM -SN BR BKN005 OVC010
     FM161500 35011KT 6SM -SN BR SCT006 OVC015
     FM161800 34010KT P6SM VCSH SCT018 OVC030
     FM162100 33008KT P6SM FEW035 SCT070 BKN120
     FM170100 23006KT P6SM FEW050 SCT100 BKN220
     FM170400 17008KT P6SM SCT130 BKN220=

USA.gov is the U.S. government's official web portal to all federal, state and local government web resources and services.